sensor_id;sensor_type;location;lat;lon;timestamp;P1;durP1;ratioP1;P2;durP2;ratioP2
30384;SDS011;17181;51.002;4.096;2022-10-15T00:00:33;9.77;;;6.33;;
30384;SDS011;17181;51.002;4.096;2022-10-15T00:02:59;8.70;;;5.63;;
30384;SDS011;17181;51.002;4.096;2022-10-15T00:05:25;7.70;;;5.57;;
30384;SDS011;17181;51.002;4.096;2022-10-15T00:07:51;9.40;;;5.40;;
30384;SDS011;17181;51.002;4.096;2022-10-15T00:10:18;12.07;;;5.77;;
30384;SDS011;17181;51.002;4.096;2022-10-15T00:12:44;9.03;;;6.07;;
30384;SDS011;17181;51.002;4.096;2022-10-15T00:15:10;13.27;;;6.73;;
30384;SDS011;17181;51.002;4.096;2022-10-15T00:17:36;9.60;;;6.07;;
30384;SDS011;17181;51.002;4.096;2022-10-15T00:20:03;9.63;;;6.17;;
30384;SDS011;17181;51.002;4.096;2022-10-15T00:22:31;10.73;;;6.10;;
30384;SDS011;17181;51.002;4.096;2022-10-15T00:24:56;10.20;;;5.83;;
30384;SDS011;17181;51.002;4.096;2022-10-15T00:27:22;11.47;;;5.93;;
30384;SDS011;17181;51.002;4.096;2022-10-15T00:29:48;10.70;;;6.50;;
30384;SDS011;17181;51.002;4.096;2022-10-15T00:32:15;13.33;;;7.80;;
30384;SDS011;17181;51.002;4.096;2022-10-15T00:34:42;12.77;;;5.63;;
30384;SDS011;17181;51.002;4.096;2022-10-15T00:37:08;16.73;;;6.97;;
30384;SDS011;17181;51.002;4.096;2022-10-15T00:39:37;11.73;;;6.43;;
30384;SDS011;17181;51.002;4.096;2022-10-15T00:42:03;14.07;;;7.37;;
30384;SDS011;17181;51.002;4.096;2022-10-15T00:47:03;17.10;;;8.00;;
30384;SDS011;17181;51.002;4.096;2022-10-15T00:49:39;13.50;;;7.40;;
30384;SDS011;17181;51.002;4.096;2022-10-15T00:52:22;9.57;;;6.57;;
30384;SDS011;17181;51.002;4.096;2022-10-15T00:54:53;9.57;;;6.33;;
30384;SDS011;17181;51.002;4.096;2022-10-15T00:57:23;15.07;;;8.03;;
30384;SDS011;17181;51.002;4.096;2022-10-15T00:59:51;9.77;;;6.50;;
30384;SDS011;17181;51.002;4.096;2022-10-15T01:02:21;11.30;;;6.87;;
30384;SDS011;17181;51.002;4.096;2022-10-15T01:04:48;12.73;;;7.90;;
30384;SDS011;17181;51.002;4.096;2022-10-15T01:07:14;12.83;;;7.30;;
30384;SDS011;17181;51.002;4.096;2022-10-15T01:09:40;16.07;;;8.23;;
30384;SDS011;17181;51.002;4.096;2022-10-15T01:12:10;12.73;;;8.00;;
30384;SDS011;17181;51.002;4.096;2022-10-15T01:14:58;14.40;;;8.93;;
30384;SDS011;17181;51.002;4.096;2022-10-15T01:28:47;8.40;;;6.70;;
30384;SDS011;17181;51.002;4.096;2022-10-15T01:31:37;14.13;;;8.13;;
30384;SDS011;17181;51.002;4.096;2022-10-15T01:40:53;19.77;;;8.23;;
30384;SDS011;17181;51.002;4.096;2022-10-15T01:43:04;12.90;;;7.93;;
30384;SDS011;17181;51.002;4.096;2022-10-15T01:45:58;17.53;;;8.40;;
30384;SDS011;17181;51.002;4.096;2022-10-15T01:48:37;17.43;;;7.97;;
30384;SDS011;17181;51.002;4.096;2022-10-15T01:51:06;13.07;;;7.50;;
30384;SDS011;17181;51.002;4.096;2022-10-15T01:53:34;14.17;;;7.87;;
30384;SDS011;17181;51.002;4.096;2022-10-15T01:56:03;16.00;;;8.40;;
30384;SDS011;17181;51.002;4.096;2022-10-15T01:58:33;13.40;;;7.60;;
30384;SDS011;17181;51.002;4.096;2022-10-15T02:01:03;12.97;;;8.00;;
30384;SDS011;17181;51.002;4.096;2022-10-15T02:03:30;11.47;;;7.33;;
30384;SDS011;17181;51.002;4.096;2022-10-15T02:06:06;14.40;;;7.57;;
30384;SDS011;17181;51.002;4.096;2022-10-15T02:11:06;9.77;;;5.03;;
30384;SDS011;17181;51.002;4.096;2022-10-15T02:21:44;10.90;;;7.33;;
30384;SDS011;17181;51.002;4.096;2022-10-15T02:24:16;11.40;;;6.87;;
30384;SDS011;17181;51.002;4.096;2022-10-15T02:26:45;16.33;;;7.63;;
30384;SDS011;17181;51.002;4.096;2022-10-15T02:29:15;9.67;;;7.23;;
30384;SDS011;17181;51.002;4.096;2022-10-15T02:31:45;11.00;;;6.77;;
30384;SDS011;17181;51.002;4.096;2022-10-15T02:34:14;12.00;;;7.03;;
30384;SDS011;17181;51.002;4.096;2022-10-15T02:36:43;10.73;;;7.13;;
30384;SDS011;17181;51.002;4.096;2022-10-15T02:39:10;13.73;;;8.13;;
30384;SDS011;17181;51.002;4.096;2022-10-15T02:41:38;12.53;;;7.80;;
30384;SDS011;17181;51.002;4.096;2022-10-15T02:44:08;5.43;;;3.80;;
30384;SDS011;17181;51.002;4.096;2022-10-15T02:46:34;14.87;;;7.43;;
30384;SDS011;17181;51.002;4.096;2022-10-15T02:49:00;9.80;;;7.00;;
30384;SDS011;17181;51.002;4.096;2022-10-15T02:51:30;11.27;;;7.70;;
30384;SDS011;17181;51.002;4.096;2022-10-15T02:53:57;14.37;;;8.00;;
30384;SDS011;17181;51.002;4.096;2022-10-15T02:56:24;13.30;;;7.50;;
30384;SDS011;17181;51.002;4.096;2022-10-15T02:58:51;16.83;;;9.23;;
30384;SDS011;17181;51.002;4.096;2022-10-15T03:01:18;16.87;;;8.83;;
30384;SDS011;17181;51.002;4.096;2022-10-15T03:03:44;22.73;;;9.97;;
30384;SDS011;17181;51.002;4.096;2022-10-15T03:06:11;20.90;;;9.47;;
30384;SDS011;17181;51.002;4.096;2022-10-15T03:08:37;23.03;;;10.13;;
30384;SDS011;17181;51.002;4.096;2022-10-15T03:11:03;20.67;;;11.83;;
30384;SDS011;17181;51.002;4.096;2022-10-15T03:13:30;23.83;;;9.00;;
30384;SDS011;17181;51.002;4.096;2022-10-15T03:16:02;14.53;;;9.03;;
30384;SDS011;17181;51.002;4.096;2022-10-15T03:18:36;19.07;;;11.33;;
30384;SDS011;17181;51.002;4.096;2022-10-15T03:21:02;20.47;;;10.30;;
30384;SDS011;17181;51.002;4.096;2022-10-15T03:23:29;22.97;;;10.77;;
30384;SDS011;17181;51.002;4.096;2022-10-15T03:26:06;17.93;;;9.30;;
30384;SDS011;17181;51.002;4.096;2022-10-15T03:28:32;19.67;;;10.37;;
30384;SDS011;17181;51.002;4.096;2022-10-15T03:30:59;21.50;;;10.67;;
30384;SDS011;17181;51.002;4.096;2022-10-15T03:33:25;21.77;;;11.90;;
30384;SDS011;17181;51.002;4.096;2022-10-15T03:35:52;19.70;;;8.50;;
30384;SDS011;17181;51.002;4.096;2022-10-15T03:38:19;17.03;;;9.30;;
30384;SDS011;17181;51.002;4.096;2022-10-15T03:40:45;20.43;;;10.17;;
30384;SDS011;17181;51.002;4.096;2022-10-15T03:43:21;25.47;;;11.23;;
30384;SDS011;17181;51.002;4.096;2022-10-15T03:45:50;15.40;;;7.93;;
30384;SDS011;17181;51.002;4.096;2022-10-15T03:48:19;14.63;;;7.47;;
30384;SDS011;17181;51.002;4.096;2022-10-15T03:50:45;16.67;;;8.80;;
30384;SDS011;17181;51.002;4.096;2022-10-15T03:53:12;20.40;;;10.07;;
30384;SDS011;17181;51.002;4.096;2022-10-15T03:55:39;16.90;;;9.13;;
30384;SDS011;17181;51.002;4.096;2022-10-15T03:58:05;11.30;;;7.17;;
30384;SDS011;17181;51.002;4.096;2022-10-15T04:00:31;15.50;;;7.90;;
30384;SDS011;17181;51.002;4.096;2022-10-15T04:03:00;5.23;;;3.30;;
30384;SDS011;17181;51.002;4.096;2022-10-15T04:05:27;15.23;;;8.90;;
30384;SDS011;17181;51.002;4.096;2022-10-15T04:08:00;13.57;;;8.30;;
30384;SDS011;17181;51.002;4.096;2022-10-15T04:10:29;10.10;;;6.53;;
30384;SDS011;17181;51.002;4.096;2022-10-15T04:12:56;8.47;;;5.97;;
30384;SDS011;17181;51.002;4.096;2022-10-15T04:15:21;14.00;;;7.60;;
30384;SDS011;17181;51.002;4.096;2022-10-15T04:17:55;10.63;;;5.87;;
30384;SDS011;17181;51.002;4.096;2022-10-15T04:20:22;8.87;;;4.30;;
30384;SDS011;17181;51.002;4.096;2022-10-15T04:22:48;12.23;;;6.57;;
30384;SDS011;17181;51.002;4.096;2022-10-15T04:25:15;8.97;;;5.70;;
30384;SDS011;17181;51.002;4.096;2022-10-15T04:27:41;12.83;;;6.47;;
30384;SDS011;17181;51.002;4.096;2022-10-15T04:30:11;11.93;;;7.10;;
30384;SDS011;17181;51.002;4.096;2022-10-15T04:32:41;6.17;;;3.23;;
30384;SDS011;17181;51.002;4.096;2022-10-15T04:35:08;8.53;;;5.57;;
30384;SDS011;17181;51.002;4.096;2022-10-15T04:37:57;8.10;;;5.50;;
30384;SDS011;17181;51.002;4.096;2022-10-15T04:40:24;9.70;;;6.97;;
30384;SDS011;17181;51.002;4.096;2022-10-15T04:42:50;33.33;;;5.87;;
30384;SDS011;17181;51.002;4.096;2022-10-15T04:45:16;10.87;;;6.83;;
30384;SDS011;17181;51.002;4.096;2022-10-15T04:47:42;6.80;;;5.00;;
30384;SDS011;17181;51.002;4.096;2022-10-15T04:50:13;15.83;;;6.43;;
30384;SDS011;17181;51.002;4.096;2022-10-15T04:52:58;11.77;;;7.93;;
30384;SDS011;17181;51.002;4.096;2022-10-15T04:55:26;14.07;;;8.00;;
30384;SDS011;17181;51.002;4.096;2022-10-15T04:57:57;12.60;;;7.40;;
30384;SDS011;17181;51.002;4.096;2022-10-15T05:00:27;10.50;;;6.70;;
30384;SDS011;17181;51.002;4.096;2022-10-15T05:02:55;16.00;;;6.17;;
30384;SDS011;17181;51.002;4.096;2022-10-15T05:05:36;14.70;;;7.10;;
30384;SDS011;17181;51.002;4.096;2022-10-15T05:08:04;14.43;;;7.73;;
30384;SDS011;17181;51.002;4.096;2022-10-15T05:10:50;12.77;;;7.73;;
30384;SDS011;17181;51.002;4.096;2022-10-15T05:13:17;12.47;;;7.47;;
30384;SDS011;17181;51.002;4.096;2022-10-15T05:15:43;12.50;;;7.37;;
30384;SDS011;17181;51.002;4.096;2022-10-15T05:18:09;13.47;;;6.87;;
30384;SDS011;17181;51.002;4.096;2022-10-15T05:20:44;20.37;;;8.03;;
30384;SDS011;17181;51.002;4.096;2022-10-15T05:23:14;11.10;;;6.33;;
30384;SDS011;17181;51.002;4.096;2022-10-15T05:25:46;10.70;;;5.53;;
30384;SDS011;17181;51.002;4.096;2022-10-15T05:28:17;11.07;;;6.53;;
30384;SDS011;17181;51.002;4.096;2022-10-15T05:30:43;16.97;;;7.70;;
30384;SDS011;17181;51.002;4.096;2022-10-15T05:33:10;14.03;;;6.83;;
30384;SDS011;17181;51.002;4.096;2022-10-15T05:35:36;12.73;;;7.47;;
30384;SDS011;17181;51.002;4.096;2022-10-15T05:38:02;12.60;;;7.03;;
30384;SDS011;17181;51.002;4.096;2022-10-15T05:40:29;12.77;;;6.50;;
30384;SDS011;17181;51.002;4.096;2022-10-15T05:43:08;10.73;;;7.37;;
30384;SDS011;17181;51.002;4.096;2022-10-15T05:45:34;12.67;;;6.40;;
30384;SDS011;17181;51.002;4.096;2022-10-15T05:48:04;11.77;;;7.03;;
30384;SDS011;17181;51.002;4.096;2022-10-15T05:50:30;15.30;;;7.23;;
30384;SDS011;17181;51.002;4.096;2022-10-15T05:52:57;11.20;;;5.83;;
30384;SDS011;17181;51.002;4.096;2022-10-15T05:55:34;10.30;;;5.83;;
30384;SDS011;17181;51.002;4.096;2022-10-15T05:58:02;10.13;;;5.53;;
30384;SDS011;17181;51.002;4.096;2022-10-15T06:00:28;12.57;;;6.07;;
30384;SDS011;17181;51.002;4.096;2022-10-15T06:02:54;13.83;;;5.17;;
30384;SDS011;17181;51.002;4.096;2022-10-15T06:05:22;7.90;;;5.30;;
30384;SDS011;17181;51.002;4.096;2022-10-15T06:07:48;11.00;;;5.43;;
30384;SDS011;17181;51.002;4.096;2022-10-15T06:10:14;7.40;;;5.10;;
30384;SDS011;17181;51.002;4.096;2022-10-15T06:12:41;9.17;;;4.17;;
30384;SDS011;17181;51.002;4.096;2022-10-15T06:15:06;15.27;;;5.53;;
30384;SDS011;17181;51.002;4.096;2022-10-15T06:17:32;8.40;;;4.60;;
30384;SDS011;17181;51.002;4.096;2022-10-15T06:19:58;10.47;;;5.37;;
30384;SDS011;17181;51.002;4.096;2022-10-15T06:22:24;9.67;;;5.23;;
30384;SDS011;17181;51.002;4.096;2022-10-15T06:24:50;9.07;;;5.17;;
30384;SDS011;17181;51.002;4.096;2022-10-15T06:27:19;11.10;;;5.03;;
30384;SDS011;17181;51.002;4.096;2022-10-15T06:29:45;10.60;;;5.00;;
30384;SDS011;17181;51.002;4.096;2022-10-15T06:32:11;15.93;;;5.07;;
30384;SDS011;17181;51.002;4.096;2022-10-15T06:34:41;9.23;;;4.80;;
30384;SDS011;17181;51.002;4.096;2022-10-15T06:37:07;7.33;;;4.73;;
30384;SDS011;17181;51.002;4.096;2022-10-15T06:39:33;10.17;;;4.80;;
30384;SDS011;17181;51.002;4.096;2022-10-15T06:41:59;6.77;;;4.27;;
30384;SDS011;17181;51.002;4.096;2022-10-15T06:44:36;9.53;;;4.70;;
30384;SDS011;17181;51.002;4.096;2022-10-15T06:47:02;8.53;;;4.40;;
30384;SDS011;17181;51.002;4.096;2022-10-15T06:49:28;6.73;;;4.67;;
30384;SDS011;17181;51.002;4.096;2022-10-15T06:51:54;9.97;;;4.67;;
30384;SDS011;17181;51.002;4.096;2022-10-15T06:54:20;8.77;;;4.50;;
30384;SDS011;17181;51.002;4.096;2022-10-15T06:56:46;7.07;;;3.90;;
30384;SDS011;17181;51.002;4.096;2022-10-15T06:59:12;5.27;;;3.90;;
30384;SDS011;17181;51.002;4.096;2022-10-15T07:01:37;5.03;;;3.80;;
30384;SDS011;17181;51.002;4.096;2022-10-15T07:04:03;5.50;;;3.70;;
30384;SDS011;17181;51.002;4.096;2022-10-15T07:06:29;7.10;;;3.83;;
30384;SDS011;17181;51.002;4.096;2022-10-15T07:08:55;6.70;;;4.07;;
30384;SDS011;17181;51.002;4.096;2022-10-15T07:11:22;9.47;;;4.67;;
30384;SDS011;17181;51.002;4.096;2022-10-15T07:13:48;6.70;;;3.57;;
30384;SDS011;17181;51.002;4.096;2022-10-15T07:16:13;6.60;;;3.97;;
30384;SDS011;17181;51.002;4.096;2022-10-15T07:18:39;8.00;;;4.57;;
30384;SDS011;17181;51.002;4.096;2022-10-15T07:21:05;4.33;;;2.60;;
30384;SDS011;17181;51.002;4.096;2022-10-15T07:23:32;9.37;;;4.73;;
30384;SDS011;17181;51.002;4.096;2022-10-15T07:25:59;5.03;;;3.47;;
30384;SDS011;17181;51.002;4.096;2022-10-15T07:28:25;7.73;;;4.13;;
30384;SDS011;17181;51.002;4.096;2022-10-15T07:30:51;7.03;;;4.27;;
30384;SDS011;17181;51.002;4.096;2022-10-15T07:33:17;5.67;;;3.77;;
30384;SDS011;17181;51.002;4.096;2022-10-15T07:35:52;4.90;;;3.23;;
30384;SDS011;17181;51.002;4.096;2022-10-15T07:38:18;6.63;;;3.93;;
30384;SDS011;17181;51.002;4.096;2022-10-15T07:40:44;1.93;;;1.83;;
30384;SDS011;17181;51.002;4.096;2022-10-15T07:43:10;3.83;;;2.40;;
30384;SDS011;17181;51.002;4.096;2022-10-15T07:45:35;8.30;;;3.60;;
30384;SDS011;17181;51.002;4.096;2022-10-15T07:48:01;5.47;;;3.17;;
30384;SDS011;17181;51.002;4.096;2022-10-15T07:50:27;5.40;;;2.83;;
30384;SDS011;17181;51.002;4.096;2022-10-15T07:52:58;9.37;;;3.90;;
30384;SDS011;17181;51.002;4.096;2022-10-15T07:55:24;4.70;;;2.70;;
30384;SDS011;17181;51.002;4.096;2022-10-15T07:57:50;4.93;;;2.87;;
30384;SDS011;17181;51.002;4.096;2022-10-15T08:00:16;3.60;;;2.17;;
30384;SDS011;17181;51.002;4.096;2022-10-15T08:02:41;6.30;;;3.17;;
30384;SDS011;17181;51.002;4.096;2022-10-15T08:05:07;6.60;;;2.67;;
30384;SDS011;17181;51.002;4.096;2022-10-15T08:07:34;5.63;;;2.97;;
30384;SDS011;17181;51.002;4.096;2022-10-15T08:09:59;5.70;;;3.80;;
30384;SDS011;17181;51.002;4.096;2022-10-15T08:12:26;4.20;;;3.07;;
30384;SDS011;17181;51.002;4.096;2022-10-15T08:14:51;6.23;;;3.27;;
30384;SDS011;17181;51.002;4.096;2022-10-15T08:17:18;3.53;;;2.30;;
30384;SDS011;17181;51.002;4.096;2022-10-15T08:19:44;5.67;;;3.03;;
30384;SDS011;17181;51.002;4.096;2022-10-15T08:22:10;4.20;;;2.30;;
30384;SDS011;17181;51.002;4.096;2022-10-15T08:24:37;7.37;;;2.83;;
30384;SDS011;17181;51.002;4.096;2022-10-15T08:27:02;5.73;;;2.73;;
30384;SDS011;17181;51.002;4.096;2022-10-15T08:29:28;2.97;;;2.20;;
30384;SDS011;17181;51.002;4.096;2022-10-15T08:31:54;4.97;;;2.40;;
30384;SDS011;17181;51.002;4.096;2022-10-15T08:34:22;4.87;;;2.73;;
30384;SDS011;17181;51.002;4.096;2022-10-15T08:36:47;2.83;;;2.40;;
30384;SDS011;17181;51.002;4.096;2022-10-15T08:39:13;3.27;;;2.07;;
30384;SDS011;17181;51.002;4.096;2022-10-15T08:44:06;1.93;;;1.20;;
30384;SDS011;17181;51.002;4.096;2022-10-15T08:46:59;2.30;;;1.73;;
30384;SDS011;17181;51.002;4.096;2022-10-15T08:49:42;0.80;;;0.80;;
30384;SDS011;17181;51.002;4.096;2022-10-15T08:52:17;4.93;;;2.10;;
30384;SDS011;17181;51.002;4.096;2022-10-15T08:54:50;2.57;;;1.67;;
30384;SDS011;17181;51.002;4.096;2022-10-15T09:00:19;0.67;;;0.67;;
30384;SDS011;17181;51.002;4.096;2022-10-15T09:09:03;1.37;;;0.93;;
30384;SDS011;17181;51.002;4.096;2022-10-15T09:13:50;1.13;;;1.03;;
30384;SDS011;17181;51.002;4.096;2022-10-15T09:16:23;0.10;;;0.10;;
30384;SDS011;17181;51.002;4.096;2022-10-15T09:18:58;5.00;;;0.93;;
30384;SDS011;17181;51.002;4.096;2022-10-15T09:21:27;1.27;;;1.17;;
30384;SDS011;17181;51.002;4.096;2022-10-15T09:23:55;0.70;;;0.70;;
30384;SDS011;17181;51.002;4.096;2022-10-15T09:26:29;3.87;;;1.00;;
30384;SDS011;17181;51.002;4.096;2022-10-15T09:32:02;0.60;;;0.60;;
30384;SDS011;17181;51.002;4.096;2022-10-15T09:34:38;6.10;;;0.70;;
30384;SDS011;17181;51.002;4.096;2022-10-15T09:37:21;0.40;;;0.40;;
30384;SDS011;17181;51.002;4.096;2022-10-15T09:42:38;1.37;;;1.27;;
30384;SDS011;17181;51.002;4.096;2022-10-15T09:45:11;2.27;;;1.13;;
30384;SDS011;17181;51.002;4.096;2022-10-15T09:47:39;1.00;;;0.87;;
30384;SDS011;17181;51.002;4.096;2022-10-15T09:50:07;0.30;;;0.30;;
30384;SDS011;17181;51.002;4.096;2022-10-15T09:57:50;1.80;;;0.93;;
30384;SDS011;17181;51.002;4.096;2022-10-15T10:00:21;0.83;;;0.80;;
30384;SDS011;17181;51.002;4.096;2022-10-15T10:03:06;0.13;;;0.13;;
30384;SDS011;17181;51.002;4.096;2022-10-15T10:05:38;3.70;;;1.03;;
30384;SDS011;17181;51.002;4.096;2022-10-15T10:10:56;0.57;;;0.57;;
30384;SDS011;17181;51.002;4.096;2022-10-15T10:13:25;0.67;;;0.67;;
30384;SDS011;17181;51.002;4.096;2022-10-15T10:15:55;0.77;;;0.40;;
30384;SDS011;17181;51.002;4.096;2022-10-15T10:18:34;1.50;;;1.40;;
30384;SDS011;17181;51.002;4.096;2022-10-15T10:21:05;1.80;;;1.23;;
30384;SDS011;17181;51.002;4.096;2022-10-15T10:23:45;0.70;;;0.70;;
30384;SDS011;17181;51.002;4.096;2022-10-15T10:26:11;0.70;;;0.70;;
30384;SDS011;17181;51.002;4.096;2022-10-15T10:28:51;1.17;;;1.00;;
30384;SDS011;17181;51.002;4.096;2022-10-15T10:31:29;4.03;;;0.73;;
30384;SDS011;17181;51.002;4.096;2022-10-15T10:34:00;1.83;;;1.20;;
30384;SDS011;17181;51.002;4.096;2022-10-15T10:36:31;1.07;;;0.77;;
30384;SDS011;17181;51.002;4.096;2022-10-15T10:44:21;0.30;;;0.30;;
30384;SDS011;17181;51.002;4.096;2022-10-15T10:49:39;0.40;;;0.40;;
30384;SDS011;17181;51.002;4.096;2022-10-15T10:52:28;0.53;;;0.53;;
30384;SDS011;17181;51.002;4.096;2022-10-15T10:57:54;0.60;;;0.60;;
30384;SDS011;17181;51.002;4.096;2022-10-15T11:03:14;0.60;;;0.50;;
30384;SDS011;17181;51.002;4.096;2022-10-15T11:06:19;0.30;;;0.30;;
30384;SDS011;17181;51.002;4.096;2022-10-15T11:14:08;0.10;;;0.10;;
30384;SDS011;17181;51.002;4.096;2022-10-15T11:24:58;0.43;;;0.20;;
30384;SDS011;17181;51.002;4.096;2022-10-15T11:28:03;0.30;;;0.30;;
30384;SDS011;17181;51.002;4.096;2022-10-15T11:31:00;0.33;;;0.33;;
30384;SDS011;17181;51.002;4.096;2022-10-15T11:39:19;0.20;;;0.20;;
30384;SDS011;17181;51.002;4.096;2022-10-15T11:50:50;0.50;;;0.50;;
30384;SDS011;17181;51.002;4.096;2022-10-15T11:53:38;0.50;;;0.50;;
30384;SDS011;17181;51.002;4.096;2022-10-15T11:56:17;0.20;;;0.20;;
30384;SDS011;17181;51.002;4.096;2022-10-15T11:58:53;0.20;;;0.20;;
30384;SDS011;17181;51.002;4.096;2022-10-15T12:04:19;0.77;;;0.40;;
30384;SDS011;17181;51.002;4.096;2022-10-15T12:06:55;0.20;;;0.20;;
30384;SDS011;17181;51.002;4.096;2022-10-15T12:09:27;0.00;;;0.00;;
30384;SDS011;17181;51.002;4.096;2022-10-15T12:12:06;3.33;;;0.53;;
30384;SDS011;17181;51.002;4.096;2022-10-15T12:17:16;0.23;;;0.23;;
30384;SDS011;17181;51.002;4.096;2022-10-15T12:20:13;0.40;;;0.10;;
30384;SDS011;17181;51.002;4.096;2022-10-15T12:28:09;0.30;;;0.30;;
30384;SDS011;17181;51.002;4.096;2022-10-15T12:30:52;3.93;;;1.33;;
30384;SDS011;17181;51.002;4.096;2022-10-15T12:35:58;0.40;;;0.40;;
30384;SDS011;17181;51.002;4.096;2022-10-15T12:38:34;0.93;;;0.30;;
30384;SDS011;17181;51.002;4.096;2022-10-15T12:43:37;0.63;;;0.63;;
30384;SDS011;17181;51.002;4.096;2022-10-15T12:46:28;0.40;;;0.40;;
30384;SDS011;17181;51.002;4.096;2022-10-15T12:49:05;1.90;;;0.90;;
30384;SDS011;17181;51.002;4.096;2022-10-15T12:51:51;0.00;;;0.00;;
30384;SDS011;17181;51.002;4.096;2022-10-15T12:54:34;0.07;;;0.07;;
30384;SDS011;17181;51.002;4.096;2022-10-15T13:00:02;0.20;;;0.20;;
30384;SDS011;17181;51.002;4.096;2022-10-15T13:02:49;0.60;;;0.60;;
30384;SDS011;17181;51.002;4.096;2022-10-15T13:05:27;0.10;;;0.10;;
30384;SDS011;17181;51.002;4.096;2022-10-15T13:07:56;0.63;;;0.43;;
30384;SDS011;17181;51.002;4.096;2022-10-15T13:10:27;0.77;;;0.77;;
30384;SDS011;17181;51.002;4.096;2022-10-15T13:12:58;2.40;;;0.77;;
30384;SDS011;17181;51.002;4.096;2022-10-15T13:15:28;1.07;;;0.20;;
30384;SDS011;17181;51.002;4.096;2022-10-15T13:17:57;1.50;;;0.13;;
30384;SDS011;17181;51.002;4.096;2022-10-15T13:20:33;0.30;;;0.20;;
30384;SDS011;17181;51.002;4.096;2022-10-15T13:23:09;7.37;;;0.40;;
30384;SDS011;17181;51.002;4.096;2022-10-15T13:25:40;0.37;;;0.23;;
30384;SDS011;17181;51.002;4.096;2022-10-15T13:28:51;1.50;;;1.00;;
30384;SDS011;17181;51.002;4.096;2022-10-15T13:30:54;1.80;;;0.10;;
30384;SDS011;17181;51.002;4.096;2022-10-15T13:33:21;0.30;;;0.30;;
30384;SDS011;17181;51.002;4.096;2022-10-15T13:35:47;1.03;;;0.70;;
30384;SDS011;17181;51.002;4.096;2022-10-15T13:38:31;0.13;;;0.03;;
30384;SDS011;17181;51.002;4.096;2022-10-15T13:40:57;0.00;;;0.00;;
30384;SDS011;17181;51.002;4.096;2022-10-15T13:43:24;0.40;;;0.40;;
30384;SDS011;17181;51.002;4.096;2022-10-15T13:45:57;0.33;;;0.33;;
30384;SDS011;17181;51.002;4.096;2022-10-15T13:48:29;0.20;;;0.20;;
30384;SDS011;17181;51.002;4.096;2022-10-15T13:51:00;0.00;;;0.00;;
30384;SDS011;17181;51.002;4.096;2022-10-15T13:53:35;4.80;;;0.73;;
30384;SDS011;17181;51.002;4.096;2022-10-15T14:05:51;7.00;;;1.13;;
30384;SDS011;17181;51.002;4.096;2022-10-15T14:08:20;2.50;;;0.93;;
30384;SDS011;17181;51.002;4.096;2022-10-15T14:10:48;1.67;;;0.67;;
30384;SDS011;17181;51.002;4.096;2022-10-15T14:13:16;1.10;;;0.60;;
30384;SDS011;17181;51.002;4.096;2022-10-15T14:15:44;0.43;;;0.37;;
30384;SDS011;17181;51.002;4.096;2022-10-15T14:18:16;0.77;;;0.43;;
30384;SDS011;17181;51.002;4.096;2022-10-15T14:20:51;0.10;;;0.10;;
30384;SDS011;17181;51.002;4.096;2022-10-15T14:23:23;0.27;;;0.10;;
30384;SDS011;17181;51.002;4.096;2022-10-15T14:25:52;0.10;;;0.10;;
30384;SDS011;17181;51.002;4.096;2022-10-15T14:28:20;2.60;;;0.53;;
30384;SDS011;17181;51.002;4.096;2022-10-15T14:30:47;3.03;;;0.60;;
30384;SDS011;17181;51.002;4.096;2022-10-15T14:33:28;0.20;;;0.20;;
30384;SDS011;17181;51.002;4.096;2022-10-15T14:36:08;0.17;;;0.17;;
30384;SDS011;17181;51.002;4.096;2022-10-15T14:38:52;0.73;;;0.33;;
30384;SDS011;17181;51.002;4.096;2022-10-15T14:44:01;0.20;;;0.20;;
30384;SDS011;17181;51.002;4.096;2022-10-15T14:46:34;0.13;;;0.13;;
30384;SDS011;17181;51.002;4.096;2022-10-15T14:49:03;0.30;;;0.30;;
30384;SDS011;17181;51.002;4.096;2022-10-15T14:52:00;0.10;;;0.10;;
30384;SDS011;17181;51.002;4.096;2022-10-15T14:54:47;2.03;;;0.73;;
30384;SDS011;17181;51.002;4.096;2022-10-15T14:57:23;0.17;;;0.17;;
30384;SDS011;17181;51.002;4.096;2022-10-15T14:59:52;4.80;;;0.67;;
30384;SDS011;17181;51.002;4.096;2022-10-15T15:02:21;1.73;;;0.53;;
30384;SDS011;17181;51.002;4.096;2022-10-15T15:05:07;25.13;;;6.03;;
30384;SDS011;17181;51.002;4.096;2022-10-15T15:07:33;2.67;;;0.70;;
30384;SDS011;17181;51.002;4.096;2022-10-15T19:40:08;5.10;;;1.40;;
30384;SDS011;17181;51.002;4.096;2022-10-15T19:42:39;6.13;;;1.83;;
30384;SDS011;17181;51.002;4.096;2022-10-15T23:16:35;0.73;;;0.73;;
30384;SDS011;17181;51.002;4.096;2022-10-15T23:19:06;1.07;;;1.00;;
30384;SDS011;17181;51.002;4.096;2022-10-15T23:21:41;4.20;;;1.00;;
30384;SDS011;17181;51.002;4.096;2022-10-15T23:24:07;2.50;;;1.00;;
30384;SDS011;17181;51.002;4.096;2022-10-15T23:26:33;0.47;;;0.47;;
30384;SDS011;17181;51.002;4.096;2022-10-15T23:29:01;0.93;;;0.83;;
30384;SDS011;17181;51.002;4.096;2022-10-15T23:31:29;0.40;;;0.40;;
30384;SDS011;17181;51.002;4.096;2022-10-15T23:33:56;0.60;;;0.60;;
30384;SDS011;17181;51.002;4.096;2022-10-15T23:36:23;0.43;;;0.43;;
30384;SDS011;17181;51.002;4.096;2022-10-15T23:38:51;0.50;;;0.50;;
30384;SDS011;17181;51.002;4.096;2022-10-15T23:41:19;0.67;;;0.53;;
30384;SDS011;17181;51.002;4.096;2022-10-15T23:43:45;1.17;;;0.70;;
30384;SDS011;17181;51.002;4.096;2022-10-15T23:46:11;0.67;;;0.60;;
30384;SDS011;17181;51.002;4.096;2022-10-15T23:48:37;1.50;;;0.70;;
30384;SDS011;17181;51.002;4.096;2022-10-15T23:51:10;0.30;;;0.30;;
30384;SDS011;17181;51.002;4.096;2022-10-15T23:53:37;0.30;;;0.30;;
30384;SDS011;17181;51.002;4.096;2022-10-15T23:56:03;0.30;;;0.20;;
30384;SDS011;17181;51.002;4.096;2022-10-15T23:58:29;1.93;;;0.87;;
